sensor_id;sensor_type;location;lat;lon;timestamp;temperature;humidity
16198;DHT22;8206;51.440;6.914;2024-03-02T00:00:36;7.30;99.90
16198;DHT22;8206;51.440;6.914;2024-03-02T00:03:03;7.30;99.90
16198;DHT22;8206;51.440;6.914;2024-03-02T00:05:31;7.40;99.90
16198;DHT22;8206;51.440;6.914;2024-03-02T00:07:58;7.30;99.90
16198;DHT22;8206;51.440;6.914;2024-03-02T00:10:26;7.40;99.90
16198;DHT22;8206;51.440;6.914;2024-03-02T00:12:55;7.40;99.90
16198;DHT22;8206;51.440;6.914;2024-03-02T00:15:41;7.50;99.90
16198;DHT22;8206;51.440;6.914;2024-03-02T00:18:11;7.60;99.90
16198;DHT22;8206;51.440;6.914;2024-03-02T00:20:39;7.60;99.90
16198;DHT22;8206;51.440;6.914;2024-03-02T00:23:07;7.70;99.90
16198;DHT22;8206;51.440;6.914;2024-03-02T00:25:40;7.60;99.90
16198;DHT22;8206;51.440;6.914;2024-03-02T00:28:13;7.70;99.90
16198;DHT22;8206;51.440;6.914;2024-03-02T00:30:55;7.80;99.90
16198;DHT22;8206;51.440;6.914;2024-03-02T00:33:23;7.80;99.90
16198;DHT22;8206;51.440;6.914;2024-03-02T00:35:52;7.80;99.90
16198;DHT22;8206;51.440;6.914;2024-03-02T00:38:19;7.90;99.90
16198;DHT22;8206;51.440;6.914;2024-03-02T00:40:46;7.90;99.90
16198;DHT22;8206;51.440;6.914;2024-03-02T00:43:38;8.00;99.90
16198;DHT22;8206;51.440;6.914;2024-03-02T00:46:06;8.10;99.90
16198;DHT22;8206;51.440;6.914;2024-03-02T00:48:33;8.20;99.90
16198;DHT22;8206;51.440;6.914;2024-03-02T00:51:03;8.30;99.90
16198;DHT22;8206;51.440;6.914;2024-03-02T00:53:31;8.30;99.90
16198;DHT22;8206;51.440;6.914;2024-03-02T00:55:59;8.30;99.90
16198;DHT22;8206;51.440;6.914;2024-03-02T00:58:26;8.40;99.90
16198;DHT22;8206;51.440;6.914;2024-03-02T01:00:52;8.50;99.90
16198;DHT22;8206;51.440;6.914;2024-03-02T01:03:19;8.50;99.90
16198;DHT22;8206;51.440;6.914;2024-03-02T01:05:46;8.50;99.90
16198;DHT22;8206;51.440;6.914;2024-03-02T01:08:14;8.60;99.90
16198;DHT22;8206;51.440;6.914;2024-03-02T01:10:41;8.60;99.90
16198;DHT22;8206;51.440;6.914;2024-03-02T01:13:07;8.60;99.90
16198;DHT22;8206;51.440;6.914;2024-03-02T01:15:34;8.60;99.90
16198;DHT22;8206;51.440;6.914;2024-03-02T01:18:01;8.60;99.90
16198;DHT22;8206;51.440;6.914;2024-03-02T01:20:28;8.70;99.90
16198;DHT22;8206;51.440;6.914;2024-03-02T01:22:54;8.70;99.90
16198;DHT22;8206;51.440;6.914;2024-03-02T01:25:22;8.70;99.90
16198;DHT22;8206;51.440;6.914;2024-03-02T01:27:48;8.70;99.90
16198;DHT22;8206;51.440;6.914;2024-03-02T01:30:15;8.70;99.90
16198;DHT22;8206;51.440;6.914;2024-03-02T01:32:42;8.70;99.90
16198;DHT22;8206;51.440;6.914;2024-03-02T01:35:09;8.70;99.90
16198;DHT22;8206;51.440;6.914;2024-03-02T01:37:36;8.60;99.90
16198;DHT22;8206;51.440;6.914;2024-03-02T01:40:03;8.60;99.90
16198;DHT22;8206;51.440;6.914;2024-03-02T01:42:36;8.70;99.90
16198;DHT22;8206;51.440;6.914;2024-03-02T01:45:04;8.70;99.90
16198;DHT22;8206;51.440;6.914;2024-03-02T01:47:31;8.70;99.90
16198;DHT22;8206;51.440;6.914;2024-03-02T01:49:58;8.60;99.90
16198;DHT22;8206;51.440;6.914;2024-03-02T01:52:25;8.60;99.90
16198;DHT22;8206;51.440;6.914;2024-03-02T01:54:51;8.50;99.90
16198;DHT22;8206;51.440;6.914;2024-03-02T01:57:19;8.40;99.90
16198;DHT22;8206;51.440;6.914;2024-03-02T01:59:47;8.30;99.90
16198;DHT22;8206;51.440;6.914;2024-03-02T02:02:14;8.30;99.90
16198;DHT22;8206;51.440;6.914;2024-03-02T02:04:40;8.30;99.90
16198;DHT22;8206;51.440;6.914;2024-03-02T02:07:07;8.40;99.90
16198;DHT22;8206;51.440;6.914;2024-03-02T02:09:34;8.40;99.90
16198;DHT22;8206;51.440;6.914;2024-03-02T02:12:00;8.40;99.90
16198;DHT22;8206;51.440;6.914;2024-03-02T02:14:28;8.30;99.90
16198;DHT22;8206;51.440;6.914;2024-03-02T02:16:56;8.30;99.90
16198;DHT22;8206;51.440;6.914;2024-03-02T02:19:23;8.30;99.90
16198;DHT22;8206;51.440;6.914;2024-03-02T02:21:51;8.50;99.90
16198;DHT22;8206;51.440;6.914;2024-03-02T02:24:17;8.50;99.90
16198;DHT22;8206;51.440;6.914;2024-03-02T02:26:44;8.50;99.90
16198;DHT22;8206;51.440;6.914;2024-03-02T02:29:11;8.60;99.90
16198;DHT22;8206;51.440;6.914;2024-03-02T02:31:38;8.60;99.90
16198;DHT22;8206;51.440;6.914;2024-03-02T02:34:05;8.60;99.90
16198;DHT22;8206;51.440;6.914;2024-03-02T02:36:32;8.70;99.90
16198;DHT22;8206;51.440;6.914;2024-03-02T02:39:02;8.60;99.90
16198;DHT22;8206;51.440;6.914;2024-03-02T02:41:30;8.60;99.90
16198;DHT22;8206;51.440;6.914;2024-03-02T02:43:56;8.60;99.90
16198;DHT22;8206;51.440;6.914;2024-03-02T02:46:23;8.70;99.90
16198;DHT22;8206;51.440;6.914;2024-03-02T02:48:50;8.70;99.90
16198;DHT22;8206;51.440;6.914;2024-03-02T02:51:18;8.70;99.90
16198;DHT22;8206;51.440;6.914;2024-03-02T02:53:45;8.70;99.90
16198;DHT22;8206;51.440;6.914;2024-03-02T02:56:13;8.70;99.90
16198;DHT22;8206;51.440;6.914;2024-03-02T02:58:40;8.70;99.90
16198;DHT22;8206;51.440;6.914;2024-03-02T03:01:06;8.70;99.90
16198;DHT22;8206;51.440;6.914;2024-03-02T03:03:33;8.70;99.90
16198;DHT22;8206;51.440;6.914;2024-03-02T03:06:00;8.70;99.90
16198;DHT22;8206;51.440;6.914;2024-03-02T03:08:27;8.80;99.90
16198;DHT22;8206;51.440;6.914;2024-03-02T03:10:54;8.70;99.90
16198;DHT22;8206;51.440;6.914;2024-03-02T03:13:22;8.80;99.90
16198;DHT22;8206;51.440;6.914;2024-03-02T03:15:49;8.70;99.90
16198;DHT22;8206;51.440;6.914;2024-03-02T03:18:15;8.70;99.90
16198;DHT22;8206;51.440;6.914;2024-03-02T03:20:42;8.70;99.90
16198;DHT22;8206;51.440;6.914;2024-03-02T03:23:09;8.70;99.90
16198;DHT22;8206;51.440;6.914;2024-03-02T03:25:40;8.70;99.90
16198;DHT22;8206;51.440;6.914;2024-03-02T03:28:07;8.70;99.90
16198;DHT22;8206;51.440;6.914;2024-03-02T03:30:36;8.70;99.90
16198;DHT22;8206;51.440;6.914;2024-03-02T03:33:03;8.70;99.90
16198;DHT22;8206;51.440;6.914;2024-03-02T03:35:31;8.60;99.90
16198;DHT22;8206;51.440;6.914;2024-03-02T03:37:58;8.60;99.90
16198;DHT22;8206;51.440;6.914;2024-03-02T03:40:25;8.70;99.90
16198;DHT22;8206;51.440;6.914;2024-03-02T03:42:51;8.70;99.90
16198;DHT22;8206;51.440;6.914;2024-03-02T03:45:18;8.70;99.90
16198;DHT22;8206;51.440;6.914;2024-03-02T03:47:46;8.70;99.90
16198;DHT22;8206;51.440;6.914;2024-03-02T03:50:13;8.70;99.90
16198;DHT22;8206;51.440;6.914;2024-03-02T03:52:40;8.70;99.90
16198;DHT22;8206;51.440;6.914;2024-03-02T03:55:07;8.60;99.90
16198;DHT22;8206;51.440;6.914;2024-03-02T03:57:34;8.60;99.90
16198;DHT22;8206;51.440;6.914;2024-03-02T04:00:01;8.50;99.90
16198;DHT22;8206;51.440;6.914;2024-03-02T04:02:27;8.50;99.90
16198;DHT22;8206;51.440;6.914;2024-03-02T04:04:55;8.40;99.90
16198;DHT22;8206;51.440;6.914;2024-03-02T04:07:22;8.40;99.90
16198;DHT22;8206;51.440;6.914;2024-03-02T04:09:49;8.40;99.90
16198;DHT22;8206;51.440;6.914;2024-03-02T04:12:15;8.30;99.90
16198;DHT22;8206;51.440;6.914;2024-03-02T04:14:42;8.30;99.90
16198;DHT22;8206;51.440;6.914;2024-03-02T04:17:09;8.20;99.90
16198;DHT22;8206;51.440;6.914;2024-03-02T04:19:35;8.00;99.90
16198;DHT22;8206;51.440;6.914;2024-03-02T04:22:04;7.90;99.90
16198;DHT22;8206;51.440;6.914;2024-03-02T04:24:30;7.80;99.90
16198;DHT22;8206;51.440;6.914;2024-03-02T04:26:57;7.70;99.90
16198;DHT22;8206;51.440;6.914;2024-03-02T04:29:24;7.60;99.90
16198;DHT22;8206;51.440;6.914;2024-03-02T04:31:50;7.60;99.90
16198;DHT22;8206;51.440;6.914;2024-03-02T04:34:17;7.50;99.90
16198;DHT22;8206;51.440;6.914;2024-03-02T04:36:43;7.50;99.90
16198;DHT22;8206;51.440;6.914;2024-03-02T04:39:11;7.40;99.90
16198;DHT22;8206;51.440;6.914;2024-03-02T04:41:38;7.30;99.90
16198;DHT22;8206;51.440;6.914;2024-03-02T04:44:05;7.30;99.90
16198;DHT22;8206;51.440;6.914;2024-03-02T04:46:33;7.20;99.90
16198;DHT22;8206;51.440;6.914;2024-03-02T04:49:00;7.10;99.90
16198;DHT22;8206;51.440;6.914;2024-03-02T04:51:26;7.10;99.90
16198;DHT22;8206;51.440;6.914;2024-03-02T04:53:53;7.10;99.90
16198;DHT22;8206;51.440;6.914;2024-03-02T04:56:21;7.10;99.90
16198;DHT22;8206;51.440;6.914;2024-03-02T04:59:09;7.10;99.90
16198;DHT22;8206;51.440;6.914;2024-03-02T05:01:35;7.20;99.90
16198;DHT22;8206;51.440;6.914;2024-03-02T05:04:02;7.30;99.90
16198;DHT22;8206;51.440;6.914;2024-03-02T05:06:29;7.20;99.90
16198;DHT22;8206;51.440;6.914;2024-03-02T05:08:56;7.20;99.90
16198;DHT22;8206;51.440;6.914;2024-03-02T05:11:24;7.10;99.90
16198;DHT22;8206;51.440;6.914;2024-03-02T05:14:08;7.10;99.90
16198;DHT22;8206;51.440;6.914;2024-03-02T05:16:35;7.10;99.90
16198;DHT22;8206;51.440;6.914;2024-03-02T05:19:03;7.00;99.90
16198;DHT22;8206;51.440;6.914;2024-03-02T05:21:32;7.00;99.90
16198;DHT22;8206;51.440;6.914;2024-03-02T05:23:58;6.90;99.90
16198;DHT22;8206;51.440;6.914;2024-03-02T05:26:26;6.90;99.90
16198;DHT22;8206;51.440;6.914;2024-03-02T05:28:53;6.80;99.90
16198;DHT22;8206;51.440;6.914;2024-03-02T05:31:20;6.80;99.90
16198;DHT22;8206;51.440;6.914;2024-03-02T05:33:46;6.80;99.90
16198;DHT22;8206;51.440;6.914;2024-03-02T05:36:13;6.70;99.90
16198;DHT22;8206;51.440;6.914;2024-03-02T05:38:40;6.60;99.90
16198;DHT22;8206;51.440;6.914;2024-03-02T05:41:06;6.60;99.90
16198;DHT22;8206;51.440;6.914;2024-03-02T05:43:34;6.60;99.90
16198;DHT22;8206;51.440;6.914;2024-03-02T05:46:01;6.50;99.90
16198;DHT22;8206;51.440;6.914;2024-03-02T05:48:28;6.50;99.90
16198;DHT22;8206;51.440;6.914;2024-03-02T05:50:55;6.50;99.90
16198;DHT22;8206;51.440;6.914;2024-03-02T05:53:22;6.50;99.90
16198;DHT22;8206;51.440;6.914;2024-03-02T05:55:48;6.40;99.90
16198;DHT22;8206;51.440;6.914;2024-03-02T05:58:18;6.40;99.90
16198;DHT22;8206;51.440;6.914;2024-03-02T06:00:58;6.40;99.90
16198;DHT22;8206;51.440;6.914;2024-03-02T06:03:24;6.30;99.90
16198;DHT22;8206;51.440;6.914;2024-03-02T06:05:51;6.30;99.90
16198;DHT22;8206;51.440;6.914;2024-03-02T06:08:18;6.30;99.90
16198;DHT22;8206;51.440;6.914;2024-03-02T06:10:44;6.20;99.90
16198;DHT22;8206;51.440;6.914;2024-03-02T06:13:11;6.30;99.90
16198;DHT22;8206;51.440;6.914;2024-03-02T06:15:38;6.20;99.90
16198;DHT22;8206;51.440;6.914;2024-03-02T06:18:06;6.20;99.90
16198;DHT22;8206;51.440;6.914;2024-03-02T06:20:33;6.20;99.90
16198;DHT22;8206;51.440;6.914;2024-03-02T06:23:00;6.20;99.90
16198;DHT22;8206;51.440;6.914;2024-03-02T06:25:27;6.30;99.90
16198;DHT22;8206;51.440;6.914;2024-03-02T06:27:53;6.30;99.90
16198;DHT22;8206;51.440;6.914;2024-03-02T06:30:20;6.40;99.90
16198;DHT22;8206;51.440;6.914;2024-03-02T06:32:47;6.50;99.90
16198;DHT22;8206;51.440;6.914;2024-03-02T06:35:15;6.50;99.90
16198;DHT22;8206;51.440;6.914;2024-03-02T06:37:41;6.40;99.90
16198;DHT22;8206;51.440;6.914;2024-03-02T06:40:08;6.40;99.90
16198;DHT22;8206;51.440;6.914;2024-03-02T06:42:35;6.40;99.90
16198;DHT22;8206;51.440;6.914;2024-03-02T06:45:03;6.30;99.90
16198;DHT22;8206;51.440;6.914;2024-03-02T06:47:29;6.40;99.90
16198;DHT22;8206;51.440;6.914;2024-03-02T06:49:56;6.40;99.90
16198;DHT22;8206;51.440;6.914;2024-03-02T06:52:25;6.40;99.90
16198;DHT22;8206;51.440;6.914;2024-03-02T06:54:51;6.40;99.90
16198;DHT22;8206;51.440;6.914;2024-03-02T06:57:18;6.40;99.90
16198;DHT22;8206;51.440;6.914;2024-03-02T06:59:46;6.40;99.90
16198;DHT22;8206;51.440;6.914;2024-03-02T07:02:14;6.40;99.90
16198;DHT22;8206;51.440;6.914;2024-03-02T07:04:40;6.50;99.90
16198;DHT22;8206;51.440;6.914;2024-03-02T07:07:07;6.60;99.90
16198;DHT22;8206;51.440;6.914;2024-03-02T07:09:34;6.60;99.90
16198;DHT22;8206;51.440;6.914;2024-03-02T07:12:01;6.70;99.90
16198;DHT22;8206;51.440;6.914;2024-03-02T07:14:27;6.80;99.90
16198;DHT22;8206;51.440;6.914;2024-03-02T07:17:20;6.90;99.90
16198;DHT22;8206;51.440;6.914;2024-03-02T07:19:47;7.10;99.90
16198;DHT22;8206;51.440;6.914;2024-03-02T07:22:14;7.30;99.90
16198;DHT22;8206;51.440;6.914;2024-03-02T07:24:42;7.50;99.90
16198;DHT22;8206;51.440;6.914;2024-03-02T07:27:09;7.60;99.90
16198;DHT22;8206;51.440;6.914;2024-03-02T07:29:36;7.60;99.90
16198;DHT22;8206;51.440;6.914;2024-03-02T07:32:03;7.70;99.90
16198;DHT22;8206;51.440;6.914;2024-03-02T07:34:29;7.60;99.90
16198;DHT22;8206;51.440;6.914;2024-03-02T07:36:56;7.60;99.90
16198;DHT22;8206;51.440;6.914;2024-03-02T07:39:23;7.60;99.90
16198;DHT22;8206;51.440;6.914;2024-03-02T07:41:51;7.60;99.90
16198;DHT22;8206;51.440;6.914;2024-03-02T07:44:18;7.60;99.90
16198;DHT22;8206;51.440;6.914;2024-03-02T07:46:46;7.70;99.90
16198;DHT22;8206;51.440;6.914;2024-03-02T07:49:13;7.80;99.90
16198;DHT22;8206;51.440;6.914;2024-03-02T07:51:40;7.80;99.90
16198;DHT22;8206;51.440;6.914;2024-03-02T07:54:06;7.80;99.90
16198;DHT22;8206;51.440;6.914;2024-03-02T07:56:33;7.80;99.90
16198;DHT22;8206;51.440;6.914;2024-03-02T07:59:02;7.90;99.90
16198;DHT22;8206;51.440;6.914;2024-03-02T08:01:29;8.00;99.90
16198;DHT22;8206;51.440;6.914;2024-03-02T08:03:56;8.20;99.90
16198;DHT22;8206;51.440;6.914;2024-03-02T08:06:24;8.20;99.90
16198;DHT22;8206;51.440;6.914;2024-03-02T08:08:53;8.40;99.90
16198;DHT22;8206;51.440;6.914;2024-03-02T08:11:20;8.50;99.90
16198;DHT22;8206;51.440;6.914;2024-03-02T08:13:47;8.70;99.90
16198;DHT22;8206;51.440;6.914;2024-03-02T08:16:15;8.80;99.90
16198;DHT22;8206;51.440;6.914;2024-03-02T08:18:44;8.80;99.90
16198;DHT22;8206;51.440;6.914;2024-03-02T08:21:10;8.90;99.90
16198;DHT22;8206;51.440;6.914;2024-03-02T08:23:37;8.90;99.90
16198;DHT22;8206;51.440;6.914;2024-03-02T08:26:06;8.90;99.90
16198;DHT22;8206;51.440;6.914;2024-03-02T08:28:32;8.90;99.90
16198;DHT22;8206;51.440;6.914;2024-03-02T08:31:00;8.90;99.90
16198;DHT22;8206;51.440;6.914;2024-03-02T08:33:28;9.00;99.90
16198;DHT22;8206;51.440;6.914;2024-03-02T08:35:54;9.10;99.90
16198;DHT22;8206;51.440;6.914;2024-03-02T08:38:21;9.30;99.90
16198;DHT22;8206;51.440;6.914;2024-03-02T08:40:49;9.60;99.90
16198;DHT22;8206;51.440;6.914;2024-03-02T08:43:16;9.90;99.90
16198;DHT22;8206;51.440;6.914;2024-03-02T08:45:43;9.90;99.90
16198;DHT22;8206;51.440;6.914;2024-03-02T08:48:09;9.80;99.90
16198;DHT22;8206;51.440;6.914;2024-03-02T08:50:37;9.70;99.90
16198;DHT22;8206;51.440;6.914;2024-03-02T08:53:04;9.60;99.90
16198;DHT22;8206;51.440;6.914;2024-03-02T08:55:31;9.50;99.90
16198;DHT22;8206;51.440;6.914;2024-03-02T08:57:58;9.50;99.90
16198;DHT22;8206;51.440;6.914;2024-03-02T09:00:25;9.50;99.90
16198;DHT22;8206;51.440;6.914;2024-03-02T09:02:51;9.50;99.90
16198;DHT22;8206;51.440;6.914;2024-03-02T09:05:18;9.50;99.90
16198;DHT22;8206;51.440;6.914;2024-03-02T09:07:46;9.60;99.90
16198;DHT22;8206;51.440;6.914;2024-03-02T09:10:13;9.60;99.90
16198;DHT22;8206;51.440;6.914;2024-03-02T09:12:39;9.60;99.90
16198;DHT22;8206;51.440;6.914;2024-03-02T09:15:07;9.70;99.90
16198;DHT22;8206;51.440;6.914;2024-03-02T09:17:34;9.80;99.90
16198;DHT22;8206;51.440;6.914;2024-03-02T09:20:00;9.80;99.90
16198;DHT22;8206;51.440;6.914;2024-03-02T09:22:29;9.90;99.90
16198;DHT22;8206;51.440;6.914;2024-03-02T09:24:57;9.90;99.90
16198;DHT22;8206;51.440;6.914;2024-03-02T09:27:24;10.00;99.90
16198;DHT22;8206;51.440;6.914;2024-03-02T09:29:51;10.00;99.90
16198;DHT22;8206;51.440;6.914;2024-03-02T09:32:18;10.10;99.90
16198;DHT22;8206;51.440;6.914;2024-03-02T09:34:44;10.10;99.90
16198;DHT22;8206;51.440;6.914;2024-03-02T09:37:13;10.10;99.90
16198;DHT22;8206;51.440;6.914;2024-03-02T09:39:40;10.20;99.90
16198;DHT22;8206;51.440;6.914;2024-03-02T09:42:11;10.20;99.90
16198;DHT22;8206;51.440;6.914;2024-03-02T09:44:39;10.20;99.90
16198;DHT22;8206;51.440;6.914;2024-03-02T09:47:07;10.30;99.90
16198;DHT22;8206;51.440;6.914;2024-03-02T09:49:34;10.40;99.90
16198;DHT22;8206;51.440;6.914;2024-03-02T09:52:03;10.50;99.90
16198;DHT22;8206;51.440;6.914;2024-03-02T09:54:31;10.60;99.90
16198;DHT22;8206;51.440;6.914;2024-03-02T09:56:57;10.60;99.90
16198;DHT22;8206;51.440;6.914;2024-03-02T09:59:26;10.70;99.90
16198;DHT22;8206;51.440;6.914;2024-03-02T10:01:57;10.70;99.90
16198;DHT22;8206;51.440;6.914;2024-03-02T10:04:25;10.70;99.90
16198;DHT22;8206;51.440;6.914;2024-03-02T10:06:54;10.80;99.90
16198;DHT22;8206;51.440;6.914;2024-03-02T10:09:36;10.90;99.90
16198;DHT22;8206;51.440;6.914;2024-03-02T10:12:04;11.00;99.90
16198;DHT22;8206;51.440;6.914;2024-03-02T10:14:33;10.90;99.90
16198;DHT22;8206;51.440;6.914;2024-03-02T10:17:02;11.00;99.90
16198;DHT22;8206;51.440;6.914;2024-03-02T10:19:29;11.00;99.90
16198;DHT22;8206;51.440;6.914;2024-03-02T10:21:59;11.10;99.90
16198;DHT22;8206;51.440;6.914;2024-03-02T10:24:26;11.10;99.90
16198;DHT22;8206;51.440;6.914;2024-03-02T10:26:53;11.10;99.90
16198;DHT22;8206;51.440;6.914;2024-03-02T10:29:22;11.10;99.90
16198;DHT22;8206;51.440;6.914;2024-03-02T10:31:50;11.20;99.90
16198;DHT22;8206;51.440;6.914;2024-03-02T10:34:16;11.30;99.90
16198;DHT22;8206;51.440;6.914;2024-03-02T10:36:44;11.30;99.90
16198;DHT22;8206;51.440;6.914;2024-03-02T10:39:13;11.30;99.90
16198;DHT22;8206;51.440;6.914;2024-03-02T10:41:40;11.30;99.90
16198;DHT22;8206;51.440;6.914;2024-03-02T10:44:07;11.30;99.90
16198;DHT22;8206;51.440;6.914;2024-03-02T10:46:36;11.40;99.90
16198;DHT22;8206;51.440;6.914;2024-03-02T10:49:05;11.60;99.90
16198;DHT22;8206;51.440;6.914;2024-03-02T10:51:33;11.70;99.90
16198;DHT22;8206;51.440;6.914;2024-03-02T10:54:02;11.60;99.90
16198;DHT22;8206;51.440;6.914;2024-03-02T10:56:30;11.60;99.90
16198;DHT22;8206;51.440;6.914;2024-03-02T10:59:02;11.70;99.90
16198;DHT22;8206;51.440;6.914;2024-03-02T11:01:31;11.70;99.90
16198;DHT22;8206;51.440;6.914;2024-03-02T11:03:59;11.70;99.90
16198;DHT22;8206;51.440;6.914;2024-03-02T11:06:29;11.80;99.90
16198;DHT22;8206;51.440;6.914;2024-03-02T11:09:00;11.80;99.90
16198;DHT22;8206;51.440;6.914;2024-03-02T11:11:32;11.80;99.90
16198;DHT22;8206;51.440;6.914;2024-03-02T11:14:02;11.80;99.90
16198;DHT22;8206;51.440;6.914;2024-03-02T11:16:34;11.80;99.90
16198;DHT22;8206;51.440;6.914;2024-03-02T11:19:03;11.90;99.90
16198;DHT22;8206;51.440;6.914;2024-03-02T11:21:32;12.00;99.90
16198;DHT22;8206;51.440;6.914;2024-03-02T11:23:59;11.90;99.90
16198;DHT22;8206;51.440;6.914;2024-03-02T11:26:27;11.90;99.90
16198;DHT22;8206;51.440;6.914;2024-03-02T11:28:54;12.00;99.90
16198;DHT22;8206;51.440;6.914;2024-03-02T11:31:22;12.10;99.90
16198;DHT22;8206;51.440;6.914;2024-03-02T11:33:49;12.10;99.90
16198;DHT22;8206;51.440;6.914;2024-03-02T11:36:15;12.10;99.90
16198;DHT22;8206;51.440;6.914;2024-03-02T11:38:44;12.10;99.90
16198;DHT22;8206;51.440;6.914;2024-03-02T11:41:12;12.20;99.90
16198;DHT22;8206;51.440;6.914;2024-03-02T11:43:40;12.20;99.90
16198;DHT22;8206;51.440;6.914;2024-03-02T11:46:06;12.30;99.90
16198;DHT22;8206;51.440;6.914;2024-03-02T11:48:35;12.40;99.90
16198;DHT22;8206;51.440;6.914;2024-03-02T11:51:03;12.40;99.90
16198;DHT22;8206;51.440;6.914;2024-03-02T11:53:30;12.40;99.90
16198;DHT22;8206;51.440;6.914;2024-03-02T11:55:59;12.40;99.90
16198;DHT22;8206;51.440;6.914;2024-03-02T11:58:27;12.40;99.90
16198;DHT22;8206;51.440;6.914;2024-03-02T12:00:55;12.40;99.90
16198;DHT22;8206;51.440;6.914;2024-03-02T12:03:22;12.60;99.90
16198;DHT22;8206;51.440;6.914;2024-03-02T12:05:51;12.60;99.90
16198;DHT22;8206;51.440;6.914;2024-03-02T12:08:18;12.70;99.90
16198;DHT22;8206;51.440;6.914;2024-03-02T12:10:56;12.70;99.90
16198;DHT22;8206;51.440;6.914;2024-03-02T12:13:24;12.80;99.90
16198;DHT22;8206;51.440;6.914;2024-03-02T12:15:53;12.90;99.90
16198;DHT22;8206;51.440;6.914;2024-03-02T12:18:20;12.90;99.90
16198;DHT22;8206;51.440;6.914;2024-03-02T12:20:48;13.00;99.90
16198;DHT22;8206;51.440;6.914;2024-03-02T12:23:16;13.00;99.90
16198;DHT22;8206;51.440;6.914;2024-03-02T12:25:42;13.10;99.90
16198;DHT22;8206;51.440;6.914;2024-03-02T12:28:09;13.10;99.90
16198;DHT22;8206;51.440;6.914;2024-03-02T12:30:38;13.20;99.90
16198;DHT22;8206;51.440;6.914;2024-03-02T12:33:05;13.20;99.90
16198;DHT22;8206;51.440;6.914;2024-03-02T12:35:31;13.30;99.90
16198;DHT22;8206;51.440;6.914;2024-03-02T12:37:58;13.40;99.90
16198;DHT22;8206;51.440;6.914;2024-03-02T12:40:25;13.50;99.90
16198;DHT22;8206;51.440;6.914;2024-03-02T12:42:52;13.60;99.90
16198;DHT22;8206;51.440;6.914;2024-03-02T12:45:19;13.60;99.90
16198;DHT22;8206;51.440;6.914;2024-03-02T12:47:50;13.60;99.90
16198;DHT22;8206;51.440;6.914;2024-03-02T12:50:17;13.80;99.90
16198;DHT22;8206;51.440;6.914;2024-03-02T12:52:51;13.90;99.90
16198;DHT22;8206;51.440;6.914;2024-03-02T12:55:20;14.00;99.90
16198;DHT22;8206;51.440;6.914;2024-03-02T12:57:46;14.00;99.90
16198;DHT22;8206;51.440;6.914;2024-03-02T13:00:13;14.10;99.90
16198;DHT22;8206;51.440;6.914;2024-03-02T13:02:41;14.10;99.90
16198;DHT22;8206;51.440;6.914;2024-03-02T13:05:09;14.20;99.90
16198;DHT22;8206;51.440;6.914;2024-03-02T13:07:37;14.20;99.90
16198;DHT22;8206;51.440;6.914;2024-03-02T13:10:04;14.20;99.90
16198;DHT22;8206;51.440;6.914;2024-03-02T13:12:31;14.20;99.90
16198;DHT22;8206;51.440;6.914;2024-03-02T13:14:58;14.20;99.90
16198;DHT22;8206;51.440;6.914;2024-03-02T13:17:25;14.30;99.90
16198;DHT22;8206;51.440;6.914;2024-03-02T13:19:52;14.30;99.90
16198;DHT22;8206;51.440;6.914;2024-03-02T13:22:21;14.40;99.90
16198;DHT22;8206;51.440;6.914;2024-03-02T13:24:48;14.40;99.90
16198;DHT22;8206;51.440;6.914;2024-03-02T13:27:14;14.40;99.90
16198;DHT22;8206;51.440;6.914;2024-03-02T13:29:41;14.40;99.90
16198;DHT22;8206;51.440;6.914;2024-03-02T13:32:08;14.50;99.90
16198;DHT22;8206;51.440;6.914;2024-03-02T13:34:36;14.50;99.90
16198;DHT22;8206;51.440;6.914;2024-03-02T13:37:03;14.60;99.90
16198;DHT22;8206;51.440;6.914;2024-03-02T13:39:32;14.50;99.90
16198;DHT22;8206;51.440;6.914;2024-03-02T13:42:05;14.50;99.90
16198;DHT22;8206;51.440;6.914;2024-03-02T13:44:33;14.50;99.90
16198;DHT22;8206;51.440;6.914;2024-03-02T13:47:00;14.50;99.90
16198;DHT22;8206;51.440;6.914;2024-03-02T13:49:27;14.50;99.90
16198;DHT22;8206;51.440;6.914;2024-03-02T13:51:59;14.40;99.90
16198;DHT22;8206;51.440;6.914;2024-03-02T13:54:28;14.30;99.90
16198;DHT22;8206;51.440;6.914;2024-03-02T13:56:56;14.30;99.90
16198;DHT22;8206;51.440;6.914;2024-03-02T13:59:24;14.40;99.90
16198;DHT22;8206;51.440;6.914;2024-03-02T14:01:51;14.40;99.90
16198;DHT22;8206;51.440;6.914;2024-03-02T14:04:18;14.50;99.90
16198;DHT22;8206;51.440;6.914;2024-03-02T14:06:44;14.80;99.90
16198;DHT22;8206;51.440;6.914;2024-03-02T14:09:11;14.90;99.90
16198;DHT22;8206;51.440;6.914;2024-03-02T14:11:38;14.90;99.90
16198;DHT22;8206;51.440;6.914;2024-03-02T14:14:06;14.90;99.90
16198;DHT22;8206;51.440;6.914;2024-03-02T14:16:32;14.60;99.90
16198;DHT22;8206;51.440;6.914;2024-03-02T14:19:00;14.40;99.90
16198;DHT22;8206;51.440;6.914;2024-03-02T14:21:27;14.30;99.90
16198;DHT22;8206;51.440;6.914;2024-03-02T14:23:53;14.30;99.90
16198;DHT22;8206;51.440;6.914;2024-03-02T14:26:21;14.40;99.90
16198;DHT22;8206;51.440;6.914;2024-03-02T14:28:47;14.50;99.90
16198;DHT22;8206;51.440;6.914;2024-03-02T14:31:15;14.50;99.90
16198;DHT22;8206;51.440;6.914;2024-03-02T14:33:43;14.60;99.90
16198;DHT22;8206;51.440;6.914;2024-03-02T14:36:09;14.60;99.90
16198;DHT22;8206;51.440;6.914;2024-03-02T14:38:36;14.50;99.90
16198;DHT22;8206;51.440;6.914;2024-03-02T14:41:03;14.60;99.90
16198;DHT22;8206;51.440;6.914;2024-03-02T14:43:30;14.70;99.90
16198;DHT22;8206;51.440;6.914;2024-03-02T14:45:57;14.80;99.90
16198;DHT22;8206;51.440;6.914;2024-03-02T14:48:26;14.80;99.90
16198;DHT22;8206;51.440;6.914;2024-03-02T14:50:52;14.70;99.90
16198;DHT22;8206;51.440;6.914;2024-03-02T14:53:19;14.60;99.90
16198;DHT22;8206;51.440;6.914;2024-03-02T14:55:46;14.50;99.90
16198;DHT22;8206;51.440;6.914;2024-03-02T14:58:12;14.50;99.90
16198;DHT22;8206;51.440;6.914;2024-03-02T15:00:39;14.50;99.90
16198;DHT22;8206;51.440;6.914;2024-03-02T15:03:06;14.30;99.90
16198;DHT22;8206;51.440;6.914;2024-03-02T15:05:35;14.20;99.90
16198;DHT22;8206;51.440;6.914;2024-03-02T15:08:02;14.10;99.90
16198;DHT22;8206;51.440;6.914;2024-03-02T15:10:30;14.20;99.90
16198;DHT22;8206;51.440;6.914;2024-03-02T15:12:57;14.20;99.90
16198;DHT22;8206;51.440;6.914;2024-03-02T15:15:24;14.20;99.90
16198;DHT22;8206;51.440;6.914;2024-03-02T15:17:51;14.20;99.90
16198;DHT22;8206;51.440;6.914;2024-03-02T15:20:18;14.00;99.90
16198;DHT22;8206;51.440;6.914;2024-03-02T15:22:47;14.10;99.90
16198;DHT22;8206;51.440;6.914;2024-03-02T15:25:14;14.20;99.90
16198;DHT22;8206;51.440;6.914;2024-03-02T15:27:41;14.20;99.90
16198;DHT22;8206;51.440;6.914;2024-03-02T15:30:08;14.30;99.90
16198;DHT22;8206;51.440;6.914;2024-03-02T15:32:35;14.40;99.90
16198;DHT22;8206;51.440;6.914;2024-03-02T15:35:04;14.40;99.90
16198;DHT22;8206;51.440;6.914;2024-03-02T15:37:31;14.30;99.90
16198;DHT22;8206;51.440;6.914;2024-03-02T15:39:59;14.20;99.90
16198;DHT22;8206;51.440;6.914;2024-03-02T15:42:31;14.10;99.90
16198;DHT22;8206;51.440;6.914;2024-03-02T15:44:58;14.00;99.90
16198;DHT22;8206;51.440;6.914;2024-03-02T15:47:24;14.00;99.90
16198;DHT22;8206;51.440;6.914;2024-03-02T15:49:51;13.90;99.90
16198;DHT22;8206;51.440;6.914;2024-03-02T15:52:18;13.90;99.90
16198;DHT22;8206;51.440;6.914;2024-03-02T15:54:46;13.90;99.90
16198;DHT22;8206;51.440;6.914;2024-03-02T15:57:14;13.80;99.90